Time;durP1;ratioP1;P1;durP2;ratioP2;P2;SDS_P1;SDS_P2;PMS_P1;PMS_P2;Temp;Humidity;BMP_temperature;BMP_pressure;BME280_temperature;BME280_humidity;BME280_pressure;Samples;Min_cycle;Max_cycle;Signal;HPM_P1;HPM_P2
2023/12/01 00:01:11;;;;;;;74.45;30.55;;;3.70;99.90;;;;;;5053555;28;20033;-77
2023/12/01 00:03:37;;;;;;;81.18;33.17;;;3.80;99.90;;;;;;5054175;28;20037;-77
2023/12/01 00:06:03;;;;;;;79.75;33.13;;;3.80;99.90;;;;;;5053597;28;20020;-77
2023/12/01 00:08:29;;;;;;;72.60;31.65;;;3.80;99.90;;;;;;5051393;28;20438;-77
2023/12/01 00:10:55;;;;;;;83.13;32.83;;;3.80;99.90;;;;;;5054253;28;20017;-78
2023/12/01 00:13:21;;;;;;;81.82;33.15;;;3.80;99.90;;;;;;5055524;28;20025;-77
2023/12/01 00:15:48;;;;;;;75.32;31.48;;;3.90;99.90;;;;;;5051519;28;20118;-77
2023/12/01 00:18:13;;;;;;;71.80;30.85;;;3.90;99.90;;;;;;5050906;28;20733;-77
2023/12/01 00:20:39;;;;;;;75.50;32.45;;;3.80;99.90;;;;;;5034759;28;20107;-77
2023/12/01 00:23:05;;;;;;;72.18;31.98;;;3.80;99.90;;;;;;5031706;28;20159;-77
2023/12/01 00:25:31;;;;;;;81.45;34.28;;;3.90;99.90;;;;;;5034757;28;20057;-75
2023/12/01 00:27:58;;;;;;;77.72;32.83;;;3.80;99.90;;;;;;5048644;28;20104;-75
2023/12/01 00:30:28;;;;;;;77.05;33.40;;;3.80;99.90;;;;;;5052225;28;20025;-75
2023/12/01 00:32:55;;;;;;;78.72;33.20;;;3.80;99.90;;;;;;5052412;28;20402;-75
2023/12/01 00:35:20;;;;;;;74.25;31.45;;;3.90;99.90;;;;;;5053319;28;20037;-75
2023/12/01 00:37:46;;;;;;;79.55;33.17;;;3.80;99.90;;;;;;5053081;28;20036;-75
2023/12/01 00:40:12;;;;;;;78.85;33.53;;;3.90;99.90;;;;;;5049045;28;20021;-76
2023/12/01 00:42:38;;;;;;;80.32;33.88;;;3.80;99.90;;;;;;5052960;28;20117;-75
2023/12/01 00:45:05;;;;;;;80.40;33.17;;;3.80;99.90;;;;;;5054338;28;20051;-75
2023/12/01 00:47:31;;;;;;;82.07;31.88;;;3.80;99.90;;;;;;5054378;28;20027;-77
2023/12/01 00:49:57;;;;;;;70.35;29.70;;;3.90;99.90;;;;;;5052764;28;20051;-75
2023/12/01 00:52:24;;;;;;;76.88;32.65;;;3.90;99.90;;;;;;5053059;28;20053;-75
2023/12/01 00:54:51;;;;;;;77.25;31.98;;;3.80;99.90;;;;;;5053137;28;20025;-75
2023/12/01 00:57:16;;;;;;;87.45;34.03;;;3.90;99.90;;;;;;5052856;28;20039;-75
2023/12/01 00:59:42;;;;;;;83.53;34.53;;;3.90;99.90;;;;;;5052040;28;20422;-75
2023/12/01 01:02:08;;;;;;;82.68;31.38;;;3.90;99.90;;;;;;5051474;28;20506;-76
2023/12/01 01:04:34;;;;;;;76.38;31.48;;;3.90;99.90;;;;;;5048851;28;20052;-75
2023/12/01 01:07:00;;;;;;;74.78;32.15;;;3.80;99.90;;;;;;5051279;28;20052;-75
2023/12/01 01:09:26;;;;;;;80.88;30.77;;;3.80;99.90;;;;;;5053883;28;20057;-75
2023/12/01 01:11:52;;;;;;;81.35;31.30;;;3.80;99.90;;;;;;5054113;28;20029;-75
2023/12/01 01:14:17;;;;;;;77.43;32.35;;;3.70;99.90;;;;;;5053628;28;20037;-75
2023/12/01 01:16:43;;;;;;;81.50;31.90;;;3.70;99.90;;;;;;5046448;28;20022;-75
2023/12/01 01:19:09;;;;;;;75.55;29.15;;;3.70;99.90;;;;;;5033790;28;20106;-75
2023/12/01 01:21:35;;;;;;;78.38;31.88;;;3.70;99.90;;;;;;5039281;28;20103;-75
2023/12/01 01:24:00;;;;;;;87.40;33.10;;;3.60;99.90;;;;;;5053047;28;20028;-75
2023/12/01 01:26:26;;;;;;;77.32;30.67;;;3.70;99.90;;;;;;5053303;28;20017;-75
2023/12/01 01:28:52;;;;;;;79.32;31.38;;;3.60;99.90;;;;;;5052116;28;20028;-75
2023/12/01 01:31:17;;;;;;;77.28;32.17;;;3.60;99.90;;;;;;5053554;28;20017;-75
2023/12/01 01:33:43;;;;;;;75.80;33.55;;;3.50;99.90;;;;;;5053613;28;20028;-75
2023/12/01 01:36:09;;;;;;;77.80;31.42;;;3.50;99.90;;;;;;5051666;28;20059;-76
2023/12/01 01:38:37;;;;;;;82.22;33.28;;;3.50;99.90;;;;;;5053514;28;20044;-77
2023/12/01 01:41:03;;;;;;;76.78;31.65;;;3.60;99.90;;;;;;5068209;28;20071;-75
2023/12/01 01:43:29;;;;;;;80.63;31.77;;;3.60;99.90;;;;;;5050173;28;20025;-75
2023/12/01 01:46:11;;;;;;;72.10;31.77;;;3.60;99.90;;;;;;5053380;28;20036;-75
2023/12/01 01:48:37;;;;;;;71.03;29.65;;;3.60;99.90;;;;;;5052140;28;20031;-75
2023/12/01 01:51:06;;;;;;;76.18;30.90;;;3.60;99.90;;;;;;5067646;28;20028;-75
2023/12/01 01:53:33;;;;;;;76.28;30.15;;;3.70;99.90;;;;;;5052584;28;20033;-75
2023/12/01 01:55:59;;;;;;;84.53;33.30;;;3.60;99.90;;;;;;5052048;28;20079;-76
2023/12/01 01:58:25;;;;;;;76.75;31.45;;;3.60;99.90;;;;;;5051810;28;20024;-75
2023/12/01 02:00:52;;;;;;;83.80;30.92;;;3.60;99.90;;;;;;5051341;28;20025;-75
2023/12/01 02:03:20;;;;;;;70.90;29.35;;;3.70;99.90;;;;;;5048547;28;20021;-76
2023/12/01 02:05:47;;;;;;;76.47;30.08;;;3.70;99.90;;;;;;5051663;28;20356;-75
2023/12/01 02:08:27;;;;;;;80.40;31.13;;;3.70;99.90;;;;;;5052885;28;20036;-74
2023/12/01 02:10:57;;;;;;;72.15;29.50;;;3.70;99.90;;;;;;5051469;28;20021;-75
2023/12/01 02:13:23;;;;;;;71.47;30.02;;;3.70;99.90;;;;;;5050948;28;20025;-75
2023/12/01 02:15:50;;;;;;;84.07;32.42;;;3.70;99.90;;;;;;5051270;28;20056;-75
2023/12/01 02:18:33;;;;;;;77.72;31.55;;;3.70;99.90;;;;;;5051948;28;20029;-76
2023/12/01 02:20:59;;;;;;;84.88;32.30;;;3.60;99.90;;;;;;5052391;28;20038;-74
2023/12/01 02:23:28;;;;;;;85.05;33.38;;;3.70;99.90;;;;;;5052690;28;20064;-74
2023/12/01 02:25:54;;;;;;;76.32;32.60;;;3.70;99.90;;;;;;5051409;28;20067;-75
2023/12/01 02:28:20;;;;;;;82.32;32.58;;;3.70;99.90;;;;;;5051286;28;20100;-75
2023/12/01 02:30:54;;;;;;;89.80;33.97;;;3.70;99.90;;;;;;5052363;28;20497;-75
2023/12/01 02:33:20;;;;;;;102.35;37.20;;;3.60;99.90;;;;;;5057515;28;20045;-75
2023/12/01 02:35:46;;;;;;;101.60;35.60;;;3.50;99.90;;;;;;5030590;28;20030;-75
2023/12/01 02:38:13;;;;;;;100.63;36.53;;;3.50;99.90;;;;;;5030259;28;20103;-74
2023/12/01 02:40:43;;;;;;;99.00;36.47;;;3.50;99.90;;;;;;5031232;28;20028;-75
2023/12/01 02:43:13;;;;;;;115.97;42.05;;;3.50;99.90;;;;;;5032403;28;20026;-75
2023/12/01 02:45:38;;;;;;;116.60;40.72;;;3.30;99.90;;;;;;5029848;28;20028;-75
2023/12/01 02:48:05;;;;;;;121.85;43.03;;;3.40;99.90;;;;;;5031910;28;20631;-74
2023/12/01 02:50:32;;;;;;;127.30;43.35;;;3.30;99.90;;;;;;5032520;28;20041;-75
2023/12/01 02:52:58;;;;;;;119.63;43.05;;;3.40;99.90;;;;;;5048841;28;20025;-75
2023/12/01 02:55:24;;;;;;;124.22;41.55;;;3.30;99.90;;;;;;5052104;28;20032;-74
2023/12/01 02:57:50;;;;;;;125.20;42.92;;;3.20;99.90;;;;;;5050721;28;20033;-75
2023/12/01 03:00:16;;;;;;;125.28;43.75;;;3.20;99.90;;;;;;5052185;28;20029;-75
2023/12/01 03:02:43;;;;;;;118.97;39.72;;;3.00;99.90;;;;;;5052057;28;20033;-75
2023/12/01 03:05:10;;;;;;;115.65;41.67;;;3.20;99.90;;;;;;5049654;28;20074;-75
2023/12/01 03:07:37;;;;;;;123.63;42.75;;;3.20;99.90;;;;;;5050771;28;20030;-74
2023/12/01 03:10:04;;;;;;;119.50;41.42;;;3.30;99.90;;;;;;5051537;28;20041;-74
2023/12/01 03:12:30;;;;;;;119.63;39.63;;;3.30;99.90;;;;;;5049003;28;20091;-75
2023/12/01 03:14:58;;;;;;;115.55;42.25;;;3.30;99.90;;;;;;5050256;28;20021;-74
2023/12/01 03:17:24;;;;;;;132.68;42.10;;;3.40;99.90;;;;;;5050154;28;20471;-75
2023/12/01 03:19:53;;;;;;;124.03;41.47;;;3.40;99.90;;;;;;5050782;28;20104;-74
2023/12/01 03:22:19;;;;;;;130.02;46.85;;;3.50;99.90;;;;;;5047695;28;20541;-75
2023/12/01 03:24:47;;;;;;;141.18;46.17;;;3.50;99.90;;;;;;5051585;28;20052;-74
2023/12/01 03:27:16;;;;;;;140.13;47.72;;;3.60;99.90;;;;;;5048326;28;20021;-74
2023/12/01 03:29:42;;;;;;;145.77;47.95;;;3.50;99.90;;;;;;5062418;28;20025;-74
2023/12/01 03:32:08;;;;;;;137.95;48.35;;;3.50;99.90;;;;;;5030623;28;20645;-74
2023/12/01 03:34:34;;;;;;;140.77;50.33;;;3.50;99.90;;;;;;5046445;28;20402;-74
2023/12/01 03:37:01;;;;;;;147.57;51.28;;;3.40;99.90;;;;;;5050607;28;20037;-74
2023/12/01 03:39:26;;;;;;;142.30;51.35;;;3.40;99.90;;;;;;5049776;28;20021;-75
2023/12/01 03:41:52;;;;;;;150.98;52.92;;;3.30;99.90;;;;;;5051445;28;20035;-76
2023/12/01 03:44:19;;;;;;;146.50;50.80;;;3.30;99.90;;;;;;5050822;28;20021;-75
2023/12/01 03:46:44;;;;;;;134.35;49.60;;;3.30;99.90;;;;;;5051904;28;20029;-74
2023/12/01 03:49:10;;;;;;;140.80;49.33;;;3.10;99.90;;;;;;5053311;28;20047;-76
2023/12/01 03:51:37;;;;;;;134.27;48.55;;;3.20;99.90;;;;;;5055419;28;20017;-74
2023/12/01 03:54:03;;;;;;;131.32;48.20;;;3.20;99.90;;;;;;5056030;28;20390;-74
2023/12/01 03:56:29;;;;;;;135.23;48.78;;;3.30;99.90;;;;;;5055721;28;20021;-74
2023/12/01 03:58:55;;;;;;;130.00;46.78;;;3.30;99.90;;;;;;5056671;28;20582;-74
2023/12/01 04:01:22;;;;;;;126.00;47.40;;;3.20;99.90;;;;;;5056928;28;20029;-76
2023/12/01 04:03:48;;;;;;;133.98;50.05;;;3.20;99.90;;;;;;5054533;28;20029;-74
2023/12/01 04:06:14;;;;;;;132.80;50.08;;;3.20;99.90;;;;;;5052481;28;20029;-74
2023/12/01 04:08:39;;;;;;;138.23;49.47;;;3.20;99.90;;;;;;5054039;28;20037;-74
2023/12/01 04:11:06;;;;;;;130.30;46.85;;;3.20;99.90;;;;;;5055481;28;20045;-74
2023/12/01 04:13:33;;;;;;;138.90;50.63;;;3.20;99.90;;;;;;5054698;28;20037;-74
2023/12/01 04:15:58;;;;;;;128.02;46.45;;;3.20;99.90;;;;;;5053356;28;20055;-74
2023/12/01 04:18:27;;;;;;;131.90;49.97;;;3.10;99.90;;;;;;5054613;28;20064;-74
2023/12/01 04:20:53;;;;;;;134.05;50.03;;;3.10;99.90;;;;;;5054645;28;20045;-74
2023/12/01 04:23:19;;;;;;;134.70;51.28;;;3.10;99.90;;;;;;5053464;28;20029;-74
2023/12/01 04:25:46;;;;;;;134.27;47.30;;;3.20;99.90;;;;;;5055178;28;20025;-74
2023/12/01 04:28:14;;;;;;;129.20;47.05;;;3.20;99.90;;;;;;5054442;28;20100;-74
2023/12/01 04:30:40;;;;;;;122.38;47.85;;;3.20;99.90;;;;;;5054448;28;20021;-74
2023/12/01 04:33:06;;;;;;;120.50;44.33;;;3.30;99.90;;;;;;5052728;28;20032;-74
2023/12/01 04:35:34;;;;;;;115.20;45.67;;;3.20;99.90;;;;;;5054614;28;20039;-74
2023/12/01 04:38:03;;;;;;;110.20;43.55;;;3.20;99.90;;;;;;5054723;28;20040;-74
2023/12/01 04:40:30;;;;;;;111.70;44.88;;;3.20;99.90;;;;;;5052513;28;20048;-74
2023/12/01 04:42:57;;;;;;;111.40;44.78;;;3.20;99.90;;;;;;5053300;28;20040;-74
2023/12/01 04:45:27;;;;;;;108.28;43.22;;;3.20;99.90;;;;;;5054317;28;20116;-74
2023/12/01 04:47:55;;;;;;;105.80;41.08;;;3.30;99.90;;;;;;5053242;28;20017;-74
2023/12/01 04:50:23;;;;;;;111.03;41.05;;;3.40;99.90;;;;;;5049439;28;20018;-75
2023/12/01 04:52:52;;;;;;;108.50;42.70;;;3.40;99.90;;;;;;5052909;28;20032;-74
2023/12/01 04:55:20;;;;;;;111.00;41.50;;;3.40;99.90;;;;;;5054400;28;20114;-74
2023/12/01 04:57:47;;;;;;;110.25;43.80;;;3.40;99.90;;;;;;5053290;28;20028;-74
2023/12/01 05:00:21;;;;;;;110.07;42.72;;;3.40;99.90;;;;;;5052781;28;20075;-77
2023/12/01 05:02:57;;;;;;;102.00;41.40;;;3.40;99.90;;;;;;5053427;28;20029;-74
2023/12/01 05:05:24;;;;;;;113.93;43.55;;;3.50;99.90;;;;;;5052821;28;20107;-74
2023/12/01 05:07:56;;;;;;;105.40;41.00;;;3.40;99.90;;;;;;5052669;28;20025;-75
2023/12/01 05:10:24;;;;;;;101.55;42.60;;;3.40;99.90;;;;;;5049458;28;20029;-74
2023/12/01 05:12:52;;;;;;;110.05;43.97;;;3.40;99.90;;;;;;5034552;28;20026;-74
2023/12/01 05:15:18;;;;;;;108.18;42.83;;;3.30;99.90;;;;;;5052138;28;20029;-74
2023/12/01 05:18:10;;;;;;;104.25;41.60;;;3.40;99.90;;;;;;5052612;28;20506;-74
2023/12/01 05:20:36;;;;;;;101.55;41.60;;;3.40;99.90;;;;;;5043937;28;20052;-74
2023/12/01 05:23:09;;;;;;;98.38;38.10;;;3.40;99.90;;;;;;5053726;28;20087;-74
2023/12/01 05:25:37;;;;;;;94.47;36.00;;;3.30;99.90;;;;;;5053346;28;20099;-74
2023/12/01 05:28:05;;;;;;;99.97;37.45;;;3.10;99.90;;;;;;5052061;28;20071;-74
2023/12/01 05:30:33;;;;;;;102.93;39.72;;;3.20;99.90;;;;;;5053241;28;20036;-74
2023/12/01 05:32:59;;;;;;;96.93;36.63;;;3.10;99.90;;;;;;5053385;28;20033;-74
2023/12/01 05:35:25;;;;;;;90.05;36.08;;;3.20;99.90;;;;;;5051687;28;20112;-74
2023/12/01 05:37:55;;;;;;;94.85;37.70;;;3.10;99.90;;;;;;5053697;28;20036;-74
2023/12/01 05:40:31;;;;;;;100.53;38.50;;;3.00;99.90;;;;;;5053392;28;20025;-74
2023/12/01 05:42:58;;;;;;;97.00;37.97;;;3.10;99.90;;;;;;5051748;28;20028;-74
2023/12/01 05:45:29;;;;;;;98.68;35.92;;;3.00;99.90;;;;;;5050979;28;20051;-74
2023/12/01 05:47:56;;;;;;;98.82;37.97;;;3.10;99.90;;;;;;5053418;28;20021;-74
2023/12/01 05:50:27;;;;;;;101.93;38.10;;;3.00;99.90;;;;;;5053061;28;20025;-74
2023/12/01 05:52:54;;;;;;;96.22;36.60;;;3.00;99.90;;;;;;5052038;28;20108;-75
2023/12/01 05:55:25;;;;;;;94.35;36.63;;;3.00;99.90;;;;;;5052985;28;20243;-75
2023/12/01 05:57:53;;;;;;;97.30;38.60;;;2.90;99.90;;;;;;5053255;28;20032;-74
2023/12/01 06:00:26;;;;;;;90.22;36.63;;;3.00;99.90;;;;;;5051524;28;20033;-74
2023/12/01 06:02:52;;;;;;;90.63;36.85;;;3.00;99.90;;;;;;5053024;28;20032;-75
2023/12/01 06:05:20;;;;;;;87.07;35.13;;;3.00;99.90;;;;;;5050484;28;20502;-74
2023/12/01 06:07:49;;;;;;;87.85;35.78;;;3.00;99.90;;;;;;5051932;28;20021;-74
2023/12/01 06:10:17;;;;;;;91.72;35.53;;;2.90;99.90;;;;;;5052776;28;20032;-75
2023/12/01 06:12:43;;;;;;;87.43;34.08;;;3.00;99.90;;;;;;5053143;28;20025;-73
2023/12/01 06:15:11;;;;;;;90.03;34.67;;;3.10;99.90;;;;;;5052732;28;20387;-75
2023/12/01 06:17:37;;;;;;;87.03;34.92;;;3.10;99.90;;;;;;5052049;28;20391;-74
2023/12/01 06:20:04;;;;;;;84.80;34.60;;;3.10;99.90;;;;;;5051424;28;20056;-74
2023/12/01 06:22:30;;;;;;;86.53;33.40;;;3.10;99.90;;;;;;5047073;28;20021;-75
2023/12/01 06:24:56;;;;;;;91.40;33.95;;;3.20;99.90;;;;;;5051040;28;20036;-75
2023/12/01 06:27:25;;;;;;;93.35;35.22;;;3.00;99.90;;;;;;5051764;28;20021;-73
2023/12/01 06:29:51;;;;;;;83.88;32.95;;;2.80;99.90;;;;;;5041829;28;20080;-74
2023/12/01 06:32:17;;;;;;;87.30;34.63;;;2.90;99.90;;;;;;5051910;28;20495;-74
2023/12/01 06:34:42;;;;;;;86.40;35.75;;;2.90;99.90;;;;;;5052544;28;20104;-73
2023/12/01 06:37:08;;;;;;;88.00;34.88;;;2.80;99.90;;;;;;5050361;28;20557;-76
2023/12/01 06:39:34;;;;;;;82.22;33.33;;;2.90;99.90;;;;;;5052458;28;20422;-73
2023/12/01 06:42:00;;;;;;;84.18;32.75;;;2.80;99.90;;;;;;5051178;28;20025;-74
2023/12/01 06:44:25;;;;;;;82.80;32.40;;;2.90;99.90;;;;;;5052272;28;20024;-74
2023/12/01 06:46:51;;;;;;;80.35;32.30;;;3.00;99.90;;;;;;5051060;28;20092;-74
2023/12/01 06:49:19;;;;;;;89.28;33.88;;;3.00;99.90;;;;;;5045515;28;20097;-74
2023/12/01 06:51:45;;;;;;;84.20;33.95;;;3.10;99.90;;;;;;5043852;28;20439;-74
2023/12/01 06:54:10;;;;;;;98.55;36.45;;;3.10;99.90;;;;;;5049345;28;20044;-74
2023/12/01 06:56:37;;;;;;;91.05;35.38;;;3.00;99.90;;;;;;5049828;28;20082;-74
2023/12/01 06:59:05;;;;;;;86.53;33.72;;;3.10;99.90;;;;;;5051146;28;20029;-73
2023/12/01 07:01:31;;;;;;;85.82;33.47;;;3.10;99.90;;;;;;5050364;28;20055;-74
2023/12/01 07:03:57;;;;;;;94.22;35.58;;;3.20;99.90;;;;;;5051945;28;20025;-74
2023/12/01 07:06:23;;;;;;;93.20;34.08;;;3.20;99.90;;;;;;5051582;28;20025;-74
2023/12/01 07:08:49;;;;;;;88.47;34.58;;;3.20;99.90;;;;;;5050963;28;20033;-73
2023/12/01 07:11:16;;;;;;;89.50;34.63;;;3.20;99.90;;;;;;5067240;28;20055;-73
2023/12/01 07:13:42;;;;;;;86.38;32.90;;;3.20;99.90;;;;;;5051746;28;20029;-73
2023/12/01 07:16:11;;;;;;;92.65;34.10;;;3.30;99.90;;;;;;5057043;28;20215;-74
2023/12/01 07:18:40;;;;;;;90.45;35.40;;;3.20;99.90;;;;;;5049721;28;20029;-73
2023/12/01 07:21:06;;;;;;;91.00;34.42;;;3.20;99.90;;;;;;5051795;28;20421;-75
2023/12/01 07:23:36;;;;;;;91.43;33.08;;;3.10;99.90;;;;;;5051230;28;20033;-73
2023/12/01 07:26:02;;;;;;;94.40;34.17;;;3.10;99.90;;;;;;5050882;28;20110;-73
2023/12/01 07:28:28;;;;;;;88.45;32.50;;;3.10;99.90;;;;;;5050728;28;20025;-73
2023/12/01 07:30:54;;;;;;;81.68;33.17;;;3.10;99.90;;;;;;5050846;28;20027;-73
2023/12/01 07:33:20;;;;;;;88.95;36.42;;;3.00;99.90;;;;;;5051964;28;20096;-73
2023/12/01 07:35:45;;;;;;;85.80;35.03;;;2.90;99.90;;;;;;5051675;28;20051;-73
2023/12/01 07:38:11;;;;;;;89.13;33.45;;;3.00;99.90;;;;;;5051500;28;20052;-74
2023/12/01 07:40:37;;;;;;;84.05;34.20;;;3.10;99.90;;;;;;5051813;28;20092;-73
2023/12/01 07:43:03;;;;;;;90.13;34.60;;;3.30;99.90;;;;;;5053797;28;20096;-73
2023/12/01 07:45:29;;;;;;;88.45;35.78;;;3.30;99.90;;;;;;5054297;28;20360;-73
2023/12/01 07:47:55;;;;;;;83.70;34.80;;;3.30;99.90;;;;;;5053225;28;20018;-73
2023/12/01 07:50:21;;;;;;;87.55;34.70;;;3.30;99.90;;;;;;5054437;28;20074;-74
2023/12/01 07:52:49;;;;;;;95.20;35.10;;;3.30;99.90;;;;;;5043859;28;20029;-73
2023/12/01 07:55:16;;;;;;;81.75;32.40;;;3.30;99.90;;;;;;5052284;28;20025;-74
2023/12/01 07:57:42;;;;;;;85.40;33.47;;;3.30;99.90;;;;;;5054296;28;20487;-73
2023/12/01 08:00:19;;;;;;;84.93;34.38;;;3.30;99.90;;;;;;5055331;28;20033;-73
2023/12/01 08:02:46;;;;;;;83.95;33.28;;;3.30;99.90;;;;;;5055189;28;20032;-74
2023/12/01 08:05:15;;;;;;;81.53;33.75;;;3.30;99.90;;;;;;5054022;28;20110;-73
2023/12/01 08:07:46;;;;;;;87.78;32.83;;;3.40;99.90;;;;;;5053433;28;20203;-74
2023/12/01 08:10:15;;;;;;;82.00;31.90;;;3.40;99.90;;;;;;5053594;28;20387;-73
2023/12/01 08:12:42;;;;;;;78.15;32.42;;;3.50;99.90;;;;;;5054028;28;20494;-74
2023/12/01 08:15:08;;;;;;;82.93;34.00;;;3.30;99.90;;;;;;5053758;28;20060;-73
2023/12/01 08:17:34;;;;;;;76.93;31.92;;;3.40;99.90;;;;;;5053112;28;20078;-75
2023/12/01 08:20:00;;;;;;;83.38;34.40;;;3.40;99.90;;;;;;5049446;28;20034;-73
2023/12/01 08:22:25;;;;;;;87.47;37.38;;;3.50;99.90;;;;;;5031398;28;20551;-74
2023/12/01 08:24:51;;;;;;;76.35;30.58;;;3.50;99.90;;;;;;5037013;28;20479;-74
2023/12/01 08:27:17;;;;;;;76.47;31.88;;;3.60;99.90;;;;;;5052592;28;20032;-74
2023/12/01 08:29:43;;;;;;;77.20;30.38;;;3.60;99.90;;;;;;5053561;28;20724;-73
2023/12/01 08:32:08;;;;;;;77.78;31.95;;;3.60;99.90;;;;;;5054668;28;20017;-74
2023/12/01 08:34:35;;;;;;;77.43;32.55;;;3.60;99.90;;;;;;5051662;28;20083;-73
2023/12/01 08:37:00;;;;;;;76.43;31.15;;;3.60;99.90;;;;;;5054881;28;20029;-73
2023/12/01 08:39:27;;;;;;;71.97;28.58;;;3.70;99.90;;;;;;5033239;28;20399;-73
2023/12/01 08:41:55;;;;;;;75.13;31.48;;;3.70;99.90;;;;;;5048018;28;20063;-74
2023/12/01 08:44:21;;;;;;;70.80;28.83;;;3.70;99.90;;;;;;5052710;28;20494;-74
2023/12/01 08:46:46;;;;;;;70.30;28.25;;;3.60;99.90;;;;;;5050209;28;20017;-73
2023/12/01 08:49:12;;;;;;;74.80;29.48;;;3.60;99.90;;;;;;5051678;28;20055;-73
2023/12/01 08:51:38;;;;;;;73.07;28.92;;;3.70;99.90;;;;;;5018707;28;20021;-75
2023/12/01 08:54:04;;;;;;;74.90;29.65;;;3.60;99.90;;;;;;5022719;28;20522;-74
2023/12/01 08:56:36;;;;;;;74.95;30.05;;;3.60;99.90;;;;;;5045668;28;20041;-75
2023/12/01 08:59:02;;;;;;;72.00;29.30;;;3.60;99.90;;;;;;5031905;28;20083;-74
2023/12/01 09:01:28;;;;;;;67.78;28.27;;;3.60;99.90;;;;;;5036400;28;20017;-74
2023/12/01 09:03:54;;;;;;;71.97;29.33;;;3.60;99.90;;;;;;5033505;28;20083;-74
2023/12/01 09:06:21;;;;;;;66.93;28.40;;;3.70;99.90;;;;;;5034266;28;20020;-74
2023/12/01 09:08:47;;;;;;;73.47;29.85;;;3.70;99.90;;;;;;5037967;28;20025;-75
2023/12/01 09:11:13;;;;;;;74.13;30.55;;;3.70;99.90;;;;;;5051017;28;20014;-74
2023/12/01 09:13:40;;;;;;;72.25;29.25;;;3.70;99.90;;;;;;5038091;28;20014;-77
2023/12/01 09:16:07;;;;;;;79.20;29.95;;;3.70;99.90;;;;;;5036240;28;20513;-74
2023/12/01 09:18:34;;;;;;;69.53;28.92;;;3.80;99.90;;;;;;5053959;28;20032;-74
2023/12/01 09:21:00;;;;;;;68.82;27.92;;;3.70;99.90;;;;;;5035493;28;20021;-76
2023/12/01 09:23:26;;;;;;;71.25;27.65;;;3.70;99.90;;;;;;5050717;28;20033;-75
2023/12/01 09:25:52;;;;;;;62.60;27.15;;;3.70;99.90;;;;;;5032000;28;20384;-75
2023/12/01 09:28:18;;;;;;;69.05;28.20;;;3.80;99.90;;;;;;5036500;28;20071;-76
2023/12/01 09:30:43;;;;;;;75.38;28.70;;;3.80;99.90;;;;;;5035858;28;20365;-74
2023/12/01 09:33:09;;;;;;;67.63;28.55;;;3.70;99.90;;;;;;5031817;28;20068;-76
2023/12/01 09:35:35;;;;;;;64.93;27.13;;;3.60;99.90;;;;;;5031900;28;20040;-75
2023/12/01 09:38:01;;;;;;;66.65;26.45;;;3.60;99.90;;;;;;5032961;28;20029;-74
2023/12/01 09:40:26;;;;;;;63.72;27.50;;;3.70;99.90;;;;;;5033700;28;20022;-74
2023/12/01 09:42:53;;;;;;;65.60;25.45;;;3.70;99.90;;;;;;5034994;28;20159;-75
2023/12/01 09:45:21;;;;;;;68.70;27.45;;;3.80;99.90;;;;;;5034187;28;20068;-74
2023/12/01 09:48:08;;;;;;;65.28;26.30;;;3.80;99.90;;;;;;5036481;28;20022;-76
2023/12/01 09:50:35;;;;;;;64.85;25.08;;;3.80;99.90;;;;;;5056458;28;20380;-77
2023/12/01 09:53:01;;;;;;;60.65;25.15;;;3.80;99.90;;;;;;5033748;28;20037;-75
2023/12/01 09:55:26;;;;;;;60.80;24.83;;;3.80;99.90;;;;;;5034722;28;20025;-75
2023/12/01 09:57:53;;;;;;;62.10;25.75;;;3.80;99.90;;;;;;5031826;28;20421;-75
2023/12/01 10:00:19;;;;;;;59.10;24.33;;;3.70;99.90;;;;;;5035295;28;20338;-74
2023/12/01 10:02:45;;;;;;;64.15;27.55;;;3.70;99.90;;;;;;5035624;28;20091;-75
2023/12/01 10:05:14;;;;;;;63.78;27.65;;;3.70;99.90;;;;;;5038085;28;20017;-75
2023/12/01 10:07:40;;;;;;;70.15;25.58;;;3.70;99.90;;;;;;5032092;28;20020;-75
2023/12/01 10:10:22;;;;;;;68.35;26.70;;;3.80;99.90;;;;;;5035106;28;20361;-76
2023/12/01 10:13:04;;;;;;;58.15;24.92;;;3.70;99.90;;;;;;5034592;28;20021;-75
2023/12/01 10:15:31;;;;;;;58.63;23.13;;;3.60;99.90;;;;;;5033155;28;20056;-76
2023/12/01 10:18:19;;;;;;;60.35;23.88;;;3.60;99.90;;;;;;5033355;28;20026;-75
2023/12/01 10:21:14;;;;;;;61.00;24.95;;;3.70;99.90;;;;;;5033342;28;20025;-76
2023/12/01 10:23:39;;;;;;;63.05;25.13;;;3.80;99.90;;;;;;5033998;28;20051;-76
2023/12/01 10:26:07;;;;;;;62.85;25.40;;;3.80;99.90;;;;;;5035111;28;20017;-75
2023/12/01 10:28:40;;;;;;;61.22;25.92;;;3.70;99.90;;;;;;5035041;28;20045;-75
2023/12/01 10:31:06;;;;;;;63.72;26.38;;;3.80;99.90;;;;;;5030898;28;20009;-77
2023/12/01 10:33:35;;;;;;;54.53;22.38;;;3.80;99.90;;;;;;5034444;28;20044;-76
2023/12/01 10:36:06;;;;;;;69.22;26.33;;;3.90;99.90;;;;;;5033531;28;20025;-76
2023/12/01 10:38:36;;;;;;;64.22;27.95;;;3.80;99.90;;;;;;5034908;28;20037;-76
2023/12/01 10:41:04;;;;;;;69.65;25.42;;;3.80;99.90;;;;;;5033972;28;20024;-77
2023/12/01 10:43:31;;;;;;;68.10;26.00;;;3.80;99.90;;;;;;5035183;28;20025;-77
2023/12/01 10:46:04;;;;;;;69.40;26.00;;;3.80;99.90;;;;;;5032214;28;20021;-77
2023/12/01 10:48:33;;;;;;;66.95;25.85;;;3.90;99.90;;;;;;5033419;28;20018;-77
2023/12/01 10:51:03;;;;;;;62.35;25.75;;;3.90;99.90;;;;;;5031682;28;20092;-77
2023/12/01 10:53:29;;;;;;;67.20;25.75;;;4.00;99.90;;;;;;5029409;28;20410;-77
2023/12/01 10:56:00;;;;;;;60.33;25.55;;;4.00;99.90;;;;;;5035926;28;20056;-76
2023/12/01 10:58:27;;;;;;;61.40;25.65;;;4.00;99.90;;;;;;5033650;28;20403;-76
2023/12/01 11:00:56;;;;;;;63.22;25.60;;;4.00;99.90;;;;;;5033912;28;20382;-76
2023/12/01 11:03:29;;;;;;;55.45;23.98;;;4.00;99.90;;;;;;5029039;28;20033;-76
2023/12/01 11:06:30;;;;;;;63.95;26.60;;;4.00;99.90;;;;;;5027525;28;20356;-76
2023/12/01 11:09:42;;;;;;;63.20;26.23;;;3.90;99.90;;;;;;5025214;28;20458;-77
2023/12/01 11:12:23;;;;;;;60.17;25.50;;;4.00;99.90;;;;;;5020737;28;20802;-76
2023/12/01 11:14:51;;;;;;;63.78;26.20;;;4.10;99.90;;;;;;5031071;28;20014;-77
2023/12/01 11:17:18;;;;;;;60.85;25.85;;;4.00;99.90;;;;;;5034410;28;20055;-76
2023/12/01 11:19:44;;;;;;;62.25;25.63;;;4.10;99.90;;;;;;5039349;28;20491;-76
2023/12/01 11:22:27;;;;;;;60.95;25.77;;;4.10;99.90;;;;;;5030943;28;20021;-76
2023/12/01 11:24:54;;;;;;;59.03;24.83;;;4.10;99.90;;;;;;5041556;28;20025;-76
2023/12/01 11:27:20;;;;;;;56.65;24.52;;;4.10;99.90;;;;;;5032955;28;20013;-77
2023/12/01 11:30:07;;;;;;;59.35;25.73;;;4.10;99.90;;;;;;5034690;28;20020;-78
2023/12/01 11:32:38;;;;;;;52.30;25.25;;;4.10;99.90;;;;;;5031070;28;20036;-78
2023/12/01 11:35:09;;;;;;;56.05;24.65;;;4.00;99.90;;;;;;5050454;28;20426;-76
2023/12/01 11:37:58;;;;;;;58.58;25.35;;;3.80;99.90;;;;;;5037102;28;20033;-76
2023/12/01 11:40:26;;;;;;;55.95;25.13;;;3.90;99.90;;;;;;5041658;28;20017;-76
2023/12/01 11:42:54;;;;;;;60.67;25.67;;;3.90;99.90;;;;;;5037036;28;20028;-75
2023/12/01 11:45:41;;;;;;;58.17;24.67;;;3.70;99.90;;;;;;5043575;28;20021;-75
2023/12/01 11:48:10;;;;;;;58.10;24.38;;;3.90;99.90;;;;;;5040962;28;20025;-75
2023/12/01 11:50:40;;;;;;;56.50;24.02;;;3.90;99.90;;;;;;5041175;28;20506;-76
2023/12/01 11:53:12;;;;;;;52.22;22.15;;;3.80;99.90;;;;;;5039709;28;20049;-77
2023/12/01 11:55:38;;;;;;;57.40;22.92;;;3.80;99.90;;;;;;5038784;28;20025;-78
2023/12/01 11:58:04;;;;;;;57.90;24.13;;;3.90;99.90;;;;;;5041576;28;20021;-76
2023/12/01 12:00:34;;;;;;;55.28;22.75;;;3.80;99.90;;;;;;5041190;28;20376;-77
2023/12/01 12:02:59;;;;;;;58.03;24.35;;;3.80;99.90;;;;;;5039217;28;20435;-77
2023/12/01 12:05:25;;;;;;;53.63;22.42;;;3.90;99.90;;;;;;5055497;28;20021;-76
2023/12/01 12:07:51;;;;;;;55.75;22.88;;;4.00;99.90;;;;;;5038050;28;20022;-76
2023/12/01 12:10:17;;;;;;;57.63;23.65;;;3.90;99.90;;;;;;5039831;28;20021;-76
2023/12/01 12:12:43;;;;;;;50.47;21.65;;;4.00;99.90;;;;;;5052386;28;20471;-77
2023/12/01 12:15:09;;;;;;;55.70;20.88;;;4.00;99.90;;;;;;5038305;28;20078;-76
2023/12/01 12:17:37;;;;;;;54.40;21.27;;;4.00;99.90;;;;;;5037114;28;20048;-78
2023/12/01 12:20:04;;;;;;;52.45;22.25;;;4.00;99.90;;;;;;5042780;28;20387;-77
2023/12/01 12:22:30;;;;;;;51.88;21.35;;;4.00;99.90;;;;;;5036981;28;20041;-77
2023/12/01 12:24:56;;;;;;;52.33;21.27;;;3.90;99.90;;;;;;5038972;28;21678;-76
2023/12/01 12:27:22;;;;;;;49.58;23.33;;;3.90;99.90;;;;;;5038520;28;20035;-75
2023/12/01 12:29:49;;;;;;;52.63;21.90;;;3.80;99.90;;;;;;5036643;28;20468;-77
2023/12/01 12:32:15;;;;;;;55.67;24.23;;;3.90;99.90;;;;;;5036987;28;20486;-77
2023/12/01 12:34:41;;;;;;;52.55;21.48;;;4.00;99.90;;;;;;5033731;28;20460;-78
2023/12/01 12:37:10;;;;;;;50.25;21.30;;;3.90;99.90;;;;;;5056723;28;20014;-76
2023/12/01 12:39:36;;;;;;;51.90;21.23;;;3.90;99.90;;;;;;5033804;28;20375;-76